Latest Weather Observations for Victoria River Downs

IDD60801

Issued at 10:31 am CST Monday 16 September 2019 (issued every 10 minutes, with the page automatically refreshed every 10 minutes)

About weather observations | Map of weather stations | Latest weather observations for NT | Other Formats
Station Details ID: 014825 Name: VICTORIA RIVER DOWNS Lat: -16.40 Lon: 131.01 Height: 88.5 m
Data from the previous 72 hours. | See also: Recent months at Victoria River Downs
Date/Time
CST
Temp
°C
App
Temp
°C
Dew
Point
°C
Rel
Hum
%
Delta-T
°C
Wind Press
QNH
hPa
Press
MSL
hPa
Rain since
9am
mm
Dir  Spd
km/h
Gust
km/h
Spd
kts
Gust
kts
16/10:30am 29.6 23.5 0.2 15 14.1 ENE 22 30 12 16 1017.9 1017.4 0.0
16/10:00am 28.8 24.3 2.1 18 13.2 NE 15 26 8 14 1018.2 1017.7 0.0
16/09:30am 27.4 23.7 2.5 20 12.2 E 11 17 6 9 1018.1 1017.6 0.0
16/09:00am 25.2 21.4 3.8 25 10.6 E 13 17 7 9 1018.1 1017.6 0.0
16/08:30am 23.4 20.1 2.3 25 10.1 E 9 13 5 7 1017.7 1017.2 0.0
16/08:00am 21.2 18.2 3.9 32 8.4 ESE 9 11 5 6 1017.5 1017.0 0.0
16/07:30am 18.9 16.0 4.7 39 6.9 E 9 11 5 6 1017.0 1016.5 0.0
16/07:00am 16.8 14.5 4.8 45 5.7 ESE 6 7 3 4 1016.7 1016.2 0.0
16/06:30am 15.8 12.0 -0.8 32 7.0 ENE 9 11 5 6 1016.3 1015.8 0.0
16/06:00am 17.1 15.2 5.1 45 5.8 N 4 7 2 4 1016.0 1015.5 0.0
16/05:30am 16.9 12.9 -2.2 27 7.9 NE 9 11 5 6 1015.8 1015.3 0.0
16/05:00am 15.8 12.2 -2.2 29 7.3 NW 7 13 4 7 1015.6 1015.1 0.0
16/04:30am 16.1 13.9 -1.5 30 7.3 CALM 0 0 0 0 1015.3 1014.8 0.0
16/04:00am 17.1 14.7 -0.1 31 7.4 S 2 7 1 4 1015.2 1014.7 0.0
16/03:30am 18.1 15.6 1.6 33 7.4 S 4 9 2 5 1015.1 1014.6 0.0
16/03:00am 19.9 17.7 -1.8 23 9.3 CALM 0 0 0 0 1015.0 1014.4 0.0
16/02:30am 20.5 16.5 -2.5 21 9.7 ENE 9 11 5 6 1014.9 1014.4 0.0
16/02:00am 19.3 15.2 -2.9 22 9.2 ENE 9 11 5 6 1014.9 1014.4 0.0
16/01:30am 17.8 13.7 -3.0 24 8.5 E 9 11 5 6 1015.0 1014.5 0.0
16/01:00am 16.9 12.7 -4.3 23 8.4 NE 9 11 5 6 1015.2 1014.7 0.0
16/12:30am 18.2 16.1 -1.1 27 8.2 CALM 0 0 0 0 1014.5 1014.0 0.0
16/12:00am 18.3 15.6 -5.7 19 9.3 CALM 0 7 0 4 1014.7 1014.1 0.0
 
Date/Time
CST
Temp
°C
App
Temp
°C
Dew
Point
°C
Rel
Hum
%
Delta-T
°C
Wind Press
QNH
hPa
Press
MSL
hPa
Rain since
9am
mm
Dir  Spd
km/h
Gust
km/h
Spd
kts
Gust
kts
15/11:30pm 19.7 17.6 -0.9 25 8.9 CALM 0 0 0 0 1014.6 1014.1 0.0
15/11:00pm 19.8 15.5 -4.5 19 9.8 SW 9 19 5 10 1014.7 1014.2 0.0
15/10:30pm 19.7 16.6 -6.0 17 10.1 S 2 7 1 4 1014.7 1014.2 0.0
15/10:00pm 21.4 18.7 0.6 25 9.4 S 4 11 2 6 1014.7 1014.2 0.0
15/09:30pm 22.5 20.0 -3.7 17 11.0 CALM 0 0 0 0 1014.5 1014.0 0.0
15/09:00pm 23.2 20.8 -3.2 17 11.3 CALM 0 0 0 0 1014.3 1013.7 0.0
15/08:30pm 24.1 21.1 -1.7 18 11.5 ENE 4 7 2 4 1014.2 1013.7 0.0
15/08:00pm 26.2 22.4 -3.4 14 13.0 SE 7 9 4 5 1013.9 1013.4 0.0
15/07:30pm 28.7 26.4 -2.4 13 14.2 CALM 0 0 0 0 1013.6 1013.1 0.0
15/07:00pm 31.7 27.5 -3.6 10 16.1 E 9 15 5 8 1013.3 1012.8 0.0
15/06:30pm 33.2 27.5 -3.9 9 17.0 E 17 24 9 13 1013.0 1012.5 0.0
15/06:00pm 33.9 27.9 -3.4 9 17.4 E 19 30 10 16 1012.9 1012.3 0.0
15/05:30pm 34.6 28.3 -4.4 8 17.9 E 20 32 11 17 1012.7 1012.2 0.0
15/05:00pm 34.7 28.5 -4.4 8 18.0 E 19 32 10 17 1012.6 1012.1 0.0
15/04:30pm 34.9 29.3 -2.6 9 17.8 ESE 17 32 9 17 1012.6 1012.1 0.0
15/04:00pm 34.8 29.6 -2.7 9 17.8 SE 15 28 8 15 1012.6 1012.1 0.0
15/03:30pm 34.4 29.0 -1.6 10 17.3 SE 17 26 9 14 1013.0 1012.5 0.0
15/03:00pm 34.8 28.8 -1.3 10 17.5 ENE 20 30 11 16 1013.2 1012.7 0.0
15/02:30pm 34.7 29.1 -2.8 9 17.7 ENE 17 33 9 18 1013.6 1013.1 0.0
15/02:00pm 34.1 28.1 -1.8 10 17.2 E 20 50 11 27 1014.2 1013.7 0.0
15/01:30pm 33.5 26.6 -2.3 10 16.9 E 24 35 13 19 1014.7 1014.2 0.0
15/01:00pm 33.6 28.4 0.3 12 16.4 ESE 17 35 9 19 1015.2 1014.7 0.0
15/12:30pm 33.1 25.8 -0.1 12 16.2 ENE 28 37 15 20 1015.9 1015.4 0.0
15/12:00pm 32.0 27.3 1.2 14 15.3 ENE 15 28 8 15 1016.6 1016.2 0.0
15/11:30am 31.1 26.3 0.5 14 14.9 ENE 15 26 8 14 1017.5 1017.0 0.0
15/11:00am 29.3 23.4 -0.9 14 14.2 ENE 20 28 11 15 1018.1 1017.6 0.0
15/10:30am 28.8 23.1 -0.4 15 13.8 ENE 19 30 10 16 1018.5 1018.0 0.0
15/10:00am 28.3 23.0 -0.8 15 13.6 ENE 17 28 9 15 1018.8 1018.3 0.0
15/09:30am 26.4 21.9 -0.6 17 12.5 ENE 13 19 7 10 1019.0 1018.5 0.0
15/09:00am 25.6 21.5 2.3 22 11.3 NE 13 17 7 9 1019.2 1018.7 0.0
15/08:30am 24.2 19.9 1.2 22 10.8 NE 13 17 7 9 1018.9 1018.4 0.0
15/08:00am 21.5 19.4 1.7 27 9.2 E 2 7 1 4 1018.8 1018.3 0.0
15/07:30am 18.3 15.9 2.2 34 7.4 SSW 4 9 2 5 1018.6 1018.1 0.0
15/07:00am 15.7 13.9 5.3 50 5.0 S 4 7 2 4 1017.7 1017.2 0.0
15/06:30am 15.2 13.6 2.7 43 5.6 CALM 0 0 0 0 1017.5 1017.0 0.0
15/06:00am 15.9 14.6 4.3 46 5.4 CALM 0 2 0 1 1017.1 1016.6 0.0
15/05:30am 16.5 13.2 0.2 33 7.0 NE 7 9 4 5 1016.6 1016.1 0.0
15/05:00am 16.3 13.4 1.2 36 6.6 NW 6 9 3 5 1016.5 1016.0 0.0
15/04:30am 16.8 14.6 -1.8 28 7.7 CALM 0 7 0 4 1016.1 1015.6 0.0
15/04:00am 18.3 15.9 0.0 29 8.0 SE 2 6 1 3 1015.8 1015.3 0.0
15/03:30am 19.8 16.6 0.8 28 8.5 SW 7 9 4 5 1015.7 1015.2 0.0
15/03:00am 21.8 17.3 -0.2 23 9.9 E 13 15 7 8 1015.4 1014.8 0.0
15/02:30am 21.1 16.2 -0.2 24 9.5 E 15 17 8 9 1015.8 1015.3 0.0
15/02:00am 19.9 15.7 -1.2 24 9.1 ENE 11 15 6 8 1015.8 1015.3 0.0
15/01:30am 19.4 15.5 -1.7 24 9.0 ENE 9 11 5 6 1015.9 1015.4 0.0
15/01:00am 17.9 15.4 -4.1 22 8.8 CALM 0 0 0 0 1015.5 1015.0 0.0
15/12:30am 18.2 15.8 -3.2 23 8.7 CALM 0 0 0 0 1015.6 1015.1 0.0
15/12:00am 19.6 17.7 4.9 38 7.2 E 4 9 2 5 1015.7 1015.1 0.0
 
Date/Time
CST
Temp
°C
App
Temp
°C
Dew
Point
°C
Rel
Hum
%
Delta-T
°C
Wind Press
QNH
hPa
Press
MSL
hPa
Rain since
9am
mm
Dir  Spd
km/h
Gust
km/h
Spd
kts
Gust
kts
14/11:30pm 19.8 17.6 1.3 29 8.4 E 2 7 1 4 1015.6 1015.1 0.0
14/11:00pm 20.3 17.9 -3.4 20 9.8 CALM 0 6 0 3 1015.5 1015.0 0.0
14/10:30pm 21.0 19.0 -0.3 24 9.5 CALM 0 0 0 0 1015.7 1015.2 0.0
14/10:00pm 21.6 19.1 -3.7 18 10.6 CALM 0 0 0 0 1015.7 1015.2 0.0
14/09:30pm 22.7 20.3 -2.8 18 11.0 CALM 0 0 0 0 1015.6 1015.1 0.0
14/09:00pm 23.6 22.2 3.5 27 9.8 CALM 0 0 0 0 1015.5 1014.9 0.0
14/08:30pm 24.7 22.5 -1.2 18 11.7 CALM 0 0 0 0 1015.3 1014.8 0.0
14/08:00pm 28.0 24.5 -1.0 15 13.5 SE 7 9 4 5 1015.1 1014.6 0.0
14/07:30pm 29.7 25.8 -1.6 13 14.6 ESE 9 11 5 6 1014.8 1014.3 0.0
14/07:00pm 31.2 26.8 -2.7 11 15.6 ESE 11 15 6 8 1014.4 1013.9 0.0
14/06:30pm 32.3 27.6 -1.9 11 16.1 SE 13 22 7 12 1014.0 1013.5 0.0
14/06:00pm 33.2 27.8 -1.2 11 16.5 ESE 17 28 9 15 1013.9 1013.3 0.0
14/05:30pm 33.6 28.6 -0.9 11 16.7 ESE 15 22 8 12 1013.8 1013.3 0.0
14/05:00pm 33.8 27.9 -2.0 10 17.0 E 19 33 10 18 1013.6 1013.1 0.0
14/04:30pm 34.2 29.1 -1.7 10 17.2 E 15 28 8 15 1013.7 1013.2 0.0
14/04:05pm 34.2 28.2 -1.7 10 17.2 ESE 20 44 11 24 1013.8 1013.3 0.0
14/04:00pm 34.3 28.9 -1.7 10 17.3 SE 17 28 9 15 1013.7 1013.2 0.0
14/03:30pm 34.2 29.1 -1.7 10 17.2 ESE 15 28 8 15 1014.0 1013.5 0.0
14/03:00pm 33.8 27.7 -2.0 10 17.0 ESE 20 35 11 19 1014.3 1013.8 0.0
14/02:30pm 33.9 27.1 -2.0 10 17.1 E 24 35 13 19 1014.9 1014.4 0.0
14/02:00pm 33.4 26.7 -1.0 11 16.6 E 24 35 13 19 1015.5 1015.0 0.0
14/01:30pm 33.2 26.6 2.1 14 15.8 E 26 35 14 19 1016.0 1015.5 0.0
14/01:00pm 32.5 26.8 0.6 13 15.7 ESE 20 35 11 19 1016.8 1016.3 0.0
14/12:30pm 31.8 25.6 2.0 15 15.0 E 24 39 13 21 1017.7 1017.2 0.0
14/12:00pm 31.4 24.4 1.7 15 14.8 E 28 46 15 25 1018.2 1017.7 0.0
14/11:51am 32.1 25.0 1.3 14 15.3 E 28 48 15 26 1018.4 1017.9 0.0
14/11:30am 31.6 25.7 1.8 15 14.9 E 22 44 12 24 1018.7 1018.2 0.0
14/11:00am 30.7 24.9 4.4 19 13.7 E 24 41 13 22 1019.4 1018.9 0.0
14/10:51am 30.7 24.6 2.9 17 14.1 ESE 24 41 13 22 1019.5 1019.0 0.0
14/10:30am 29.4 25.8 6.7 24 12.2 E 15 22 8 12 1019.9 1019.4 0.0
14/10:00am 28.6 25.7 8.3 28 11.1 ENE 13 22 7 12 1020.2 1019.7 0.0
14/09:30am 26.3 23.0 6.4 28 10.4 E 13 19 7 10 1020.6 1020.1 0.0
14/09:00am 24.3 21.5 7.0 33 9.0 E 11 17 6 9 1020.6 1020.1 0.0
14/08:30am 22.7 19.6 3.8 29 9.2 E 9 11 5 6 1020.6 1020.1 0.0
14/08:00am 19.8 18.0 1.3 29 8.4 CALM 0 0 0 0 1020.4 1019.9 0.0
14/07:30am 16.3 14.0 -2.2 28 7.6 CALM 0 0 0 0 1019.9 1019.4 0.0
14/07:00am 15.0 13.0 0.1 36 6.3 CALM 0 0 0 0 1019.4 1018.9 0.0
14/06:30am 15.7 13.6 -0.9 32 7.0 CALM 0 0 0 0 1019.0 1018.5 0.0
14/06:00am 16.2 13.5 -5.5 22 8.3 CALM 0 0 0 0 1018.6 1018.1 0.0
14/05:30am 17.4 15.2 -1.8 27 8.0 CALM 0 0 0 0 1018.2 1017.7 0.0
14/05:00am 19.9 16.2 -4.4 19 9.9 E 6 7 3 4 1017.8 1017.3 0.0
14/04:30am 20.2 16.3 -4.8 18 10.1 ENE 7 9 4 5 1017.6 1017.1 0.0
14/04:00am 21.7 16.6 -5.2 16 10.9 ENE 13 17 7 9 1017.5 1017.0 0.0
14/03:30am 21.8 17.0 -5.9 15 11.1 SSE 11 17 6 9 1016.8 1016.3 0.0
14/03:00am 22.0 17.7 -4.9 16 11.0 SSE 9 13 5 7 1016.7 1016.2 0.0
14/02:30am 22.6 18.3 -5.3 15 11.4 SSE 9 13 5 7 1016.8 1016.3 0.0
14/02:00am 22.7 17.9 -6.1 14 11.6 SSE 11 15 6 8 1017.0 1016.5 0.0
14/01:30am 22.8 18.1 -5.2 15 11.5 SE 11 15 6 8 1017.2 1016.7 0.0
14/01:00am 23.2 18.0 -5.7 14 11.8 SSE 13 17 7 9 1017.2 1016.7 0.0
14/12:30am 23.5 18.8 -4.6 15 11.7 SSE 11 19 6 10 1017.3 1016.8 0.0
14/12:00am 23.7 18.7 -4.4 15 11.8 SSE 13 20 7 11 1017.5 1017.0 0.0
 
Date/Time
CST
Temp
°C
App
Temp
°C
Dew
Point
°C
Rel
Hum
%
Delta-T
°C
Wind Press
QNH
hPa
Press
MSL
hPa
Rain since
9am
mm
Dir  Spd
km/h
Gust
km/h
Spd
kts
Gust
kts
13/11:30pm 23.6 19.2 -2.8 17 11.4 SSE 11 15 6 8 1017.6 1017.1 0.0
13/11:00pm 24.1 19.5 -4.1 15 12.0 SE 11 17 6 9 1017.5 1017.0 0.0
13/10:30pm 24.7 20.0 -2.0 17 11.9 SE 13 17 7 9 1017.4 1016.9 0.0
13/10:00pm 24.8 20.8 0.3 20 11.4 SSE 11 17 6 9 1017.4 1016.9 0.0
13/09:30pm 24.8 21.0 -0.4 19 11.5 SSE 9 13 5 7 1017.2 1016.7 0.0
13/09:00pm 24.1 21.9 6.4 32 9.1 SE 7 9 4 5 1017.1 1016.6 0.0
13/08:30pm 26.2 22.7 1.5 20 11.8 SE 9 11 5 6 1016.8 1016.3 0.0
13/08:00pm 27.0 24.0 0.7 18 12.5 SE 6 7 3 4 1016.5 1016.0 0.0
13/07:30pm 28.5 24.7 -0.6 15 13.7 SE 9 13 5 7 1016.1 1015.6 0.0
13/07:00pm 29.8 26.2 0.4 15 14.2 SE 9 13 5 7 1015.7 1015.2 0.0
13/06:30pm 31.4 26.5 -0.3 13 15.3 SE 15 24 8 13 1015.3 1014.8 0.0
13/06:00pm 32.2 26.9 -0.8 12 15.8 SE 17 28 9 15 1015.1 1014.5 0.0
13/05:30pm 32.6 28.1 -0.5 12 16.0 ESE 13 19 7 10 1015.1 1014.6 0.0
13/05:00pm 32.8 27.2 -0.3 12 16.1 SE 19 28 10 15 1015.1 1014.6 0.0
13/04:30pm 33.1 28.4 1.0 13 16.0 SSE 15 32 8 17 1015.2 1014.7 0.0
13/04:00pm 32.9 27.7 -0.2 12 16.1 SE 17 28 9 15 1015.3 1014.8 0.0
13/03:30pm 32.9 27.4 0.9 13 15.9 ESE 19 26 10 14 1015.5 1015.0 0.0
13/03:00pm 32.8 27.3 0.8 13 15.8 SE 19 30 10 16 1015.9 1015.5 0.0
13/02:30pm 32.9 27.3 0.9 13 15.9 ESE 20 32 11 17 1016.3 1015.8 0.0
13/02:00pm 32.7 26.8 1.7 14 15.6 ESE 22 35 12 19 1016.8 1016.3 0.0
13/01:30pm 32.4 27.0 1.5 14 15.4 SE 19 32 10 17 1017.1 1016.6 0.0
13/01:00pm 31.6 26.0 0.9 14 15.1 ESE 20 33 11 18 1018.0 1017.5 0.0
13/12:30pm 31.3 25.0 1.6 15 14.8 ESE 24 35 13 19 1018.6 1018.1 0.0
13/12:00pm 31.2 23.6 0.6 14 14.9 E 30 48 16 26 1019.1 1018.6 0.0
13/11:58am 31.5 24.1 1.8 15 14.8 E 30 48 16 26 1019.1 1018.6 0.0
13/11:30am 30.9 25.9 4.6 19 13.7 E 20 32 11 17 1019.6 1019.1 0.0
13/11:00am 29.1 25.5 5.2 22 12.5 ENE 13 26 7 14 1020.1 1019.6 0.0

Other formats

Comma delimited format used in spreadsheet applications
http://www.bom.gov.au/fwo/IDD60801/IDD60801.94232.axf

JavaScript Object Notation format (JSON) in row-major order
http://www.bom.gov.au/fwo/IDD60801/IDD60801.94232.json

Data quality

Most of these data are generated automatically and are frequently updated. Quality checks on data are not normally performed. It is possible for incorrect values to appear. Refer to information at About Latest Weather Observations and please check the disclaimer before using these data.